createdAt,value
2023-05-24T00:00:30.018Z,57.17
2023-05-24T00:01:02.631Z,57.20
2023-05-24T00:01:34.825Z,57.53
2023-05-24T00:02:14.792Z,57.60
2023-05-24T00:02:47.278Z,57.10
2023-05-24T00:03:21.663Z,58.03
2023-05-24T00:03:59.283Z,58.38
2023-05-24T00:04:33.534Z,56.83
2023-05-24T00:05:08.057Z,57.13
2023-05-24T00:05:41.265Z,57.40
2023-05-24T00:06:13.313Z,57.28
2023-05-24T00:06:45.607Z,57.20
2023-05-24T00:07:17.632Z,56.60
2023-05-24T00:07:50.783Z,57.00
2023-05-24T00:08:35.158Z,57.45
2023-05-24T00:09:07.417Z,58.75
2023-05-24T00:09:40.562Z,57.65
2023-05-24T00:10:12.751Z,57.50
2023-05-24T00:10:44.921Z,58.05
2023-05-24T00:11:17.895Z,57.08
2023-05-24T00:11:50.023Z,57.08
2023-05-24T00:12:21.986Z,57.17
2023-05-24T00:12:54.911Z,57.05
2023-05-24T00:13:27.124Z,57.13
2023-05-24T00:13:59.094Z,56.92
2023-05-24T00:14:32.093Z,57.53
2023-05-24T00:15:04.895Z,56.60
2023-05-24T00:15:36.905Z,57.28
2023-05-24T00:16:09.940Z,56.75
2023-05-24T00:16:42.162Z,56.90
2023-05-24T00:17:14.185Z,57.30
2023-05-24T00:17:47.368Z,57.40
2023-05-24T00:18:19.410Z,57.58
2023-05-24T00:18:52.210Z,57.20
2023-05-24T00:19:26.083Z,57.40
2023-05-24T00:19:59.778Z,57.13
2023-05-24T00:20:31.983Z,57.03
2023-05-24T00:21:05.739Z,57.67
2023-05-24T00:21:37.748Z,58.03
2023-05-24T00:22:09.761Z,56.42
2023-05-24T00:22:43.188Z,57.05
2023-05-24T00:23:15.145Z,58.33
2023-05-24T00:23:47.562Z,57.83
2023-05-24T00:24:20.718Z,57.20
2023-05-24T00:24:52.788Z,58.03
2023-05-24T00:25:24.913Z,57.40
2023-05-24T00:25:57.873Z,57.92
2023-05-24T00:26:38.523Z,57.20
2023-05-24T00:27:14.000Z,57.28
2023-05-24T00:27:47.001Z,57.38
2023-05-24T00:28:19.146Z,57.17
2023-05-24T00:28:51.184Z,56.88
2023-05-24T00:29:24.346Z,57.33
2023-05-24T00:29:56.425Z,56.83
2023-05-24T00:30:28.451Z,57.83
2023-05-24T00:31:00.993Z,57.30
2023-05-24T00:31:34.786Z,56.85
2023-05-24T00:32:07.140Z,57.78
2023-05-24T00:32:39.268Z,57.42
2023-05-24T00:33:12.250Z,56.75
2023-05-24T00:33:44.199Z,57.00
2023-05-24T00:34:16.734Z,57.70
2023-05-24T00:34:51.326Z,57.10
2023-05-24T00:35:24.747Z,58.08
2023-05-24T00:35:58.618Z,57.17
2023-05-24T00:36:31.778Z,58.13
2023-05-24T00:37:03.963Z,57.03
2023-05-24T00:37:37.431Z,58.22
2023-05-24T00:38:10.545Z,56.90
2023-05-24T00:38:42.634Z,57.83
2023-05-24T00:39:14.658Z,57.40
2023-05-24T00:39:49.480Z,57.40
2023-05-24T00:40:21.787Z,56.85
2023-05-24T00:40:56.443Z,56.80
2023-05-24T00:41:29.390Z,57.42
2023-05-24T00:42:02.224Z,56.63
2023-05-24T00:42:34.206Z,57.38
2023-05-24T00:43:07.270Z,56.88
2023-05-24T00:43:39.228Z,56.85
2023-05-24T00:44:11.342Z,56.47
2023-05-24T00:44:43.402Z,57.55
2023-05-24T00:45:16.415Z,57.05
2023-05-24T00:45:48.723Z,57.78
2023-05-24T00:46:23.111Z,57.58
2023-05-24T00:46:55.159Z,57.53
2023-05-24T00:47:28.483Z,56.72
2023-05-24T00:48:00.571Z,57.50
2023-05-24T00:48:33.612Z,57.20
2023-05-24T00:49:06.684Z,57.38
2023-05-24T00:49:38.853Z,57.25
2023-05-24T00:50:13.094Z,57.60
2023-05-24T00:50:48.634Z,57.00
2023-05-24T00:51:20.961Z,56.60
2023-05-24T00:51:54.003Z,57.47
2023-05-24T00:52:26.982Z,57.05
2023-05-24T00:53:02.190Z,58.28
2023-05-24T00:53:36.989Z,57.03
2023-05-24T00:54:09.438Z,57.15
2023-05-24T00:54:42.506Z,57.05
2023-05-24T00:55:16.332Z,57.80
2023-05-24T00:55:49.216Z,56.95
2023-05-24T00:56:22.495Z,57.47
2023-05-24T00:56:56.144Z,56.78
2023-05-24T00:57:30.941Z,56.75
2023-05-24T00:58:04.316Z,57.63
2023-05-24T00:58:36.529Z,56.80
2023-05-24T00:59:09.028Z,57.47
2023-05-24T00:59:42.299Z,57.00
2023-05-24T01:00:14.666Z,56.70
2023-05-24T01:00:49.781Z,56.53
2023-05-24T01:01:25.689Z,56.60
2023-05-24T01:01:59.804Z,57.53
2023-05-24T01:02:32.650Z,57.45
2023-05-24T01:03:05.476Z,56.97
2023-05-24T01:03:39.670Z,57.45
2023-05-24T01:04:12.539Z,57.90
2023-05-24T01:04:45.044Z,56.42
2023-05-24T01:05:18.283Z,57.08
2023-05-24T01:05:52.274Z,56.92
2023-05-24T01:06:27.188Z,57.88
2023-05-24T01:07:09.952Z,56.55
2023-05-24T01:07:50.506Z,57.67
2023-05-24T01:08:38.076Z,56.97
2023-05-24T01:09:24.102Z,57.00
2023-05-24T01:10:09.301Z,56.70
2023-05-24T01:10:48.768Z,57.17
2023-05-24T01:11:35.684Z,56.63
2023-05-24T01:12:27.864Z,57.67
2023-05-24T01:13:08.421Z,57.65
2023-05-24T01:13:47.633Z,57.08
2023-05-24T01:14:27.010Z,57.58
2023-05-24T01:15:10.580Z,56.45
2023-05-24T01:15:51.730Z,57.10
2023-05-24T01:16:27.588Z,57.63
2023-05-24T01:17:09.367Z,57.08
2023-05-24T01:17:48.510Z,56.88
2023-05-24T01:18:30.438Z,56.80
2023-05-24T01:19:13.002Z,57.03
2023-05-24T01:19:52.458Z,56.45
2023-05-24T01:20:26.921Z,57.28
2023-05-24T01:21:18.627Z,57.90
2023-05-24T01:22:12.067Z,57.17
2023-05-24T01:23:07.254Z,56.75
2023-05-24T01:23:47.574Z,57.03
2023-05-24T01:24:42.362Z,56.70
2023-05-24T01:25:23.158Z,57.70
2023-05-24T01:26:15.031Z,56.90
2023-05-24T01:27:09.904Z,57.20
2023-05-24T01:27:44.495Z,56.58
2023-05-24T01:28:18.415Z,56.90
2023-05-24T01:28:53.658Z,57.97
2023-05-24T01:29:30.435Z,57.83
2023-05-24T01:30:05.018Z,57.00
2023-05-24T01:30:37.553Z,57.30
2023-05-24T01:31:11.648Z,57.33
2023-05-24T01:31:43.868Z,57.15
2023-05-24T01:32:16.160Z,57.15
2023-05-24T01:32:48.471Z,56.78
2023-05-24T01:33:22.142Z,56.90
2023-05-24T01:33:54.090Z,57.40
2023-05-24T01:34:26.280Z,57.55
2023-05-24T01:34:59.677Z,57.15
2023-05-24T01:35:31.588Z,57.65
2023-05-24T01:36:03.681Z,56.67
2023-05-24T01:36:36.620Z,57.17
2023-05-24T01:37:08.522Z,57.70
2023-05-24T01:37:40.484Z,57.53
2023-05-24T01:38:12.752Z,57.17
2023-05-24T01:38:47.300Z,57.00
2023-05-24T01:39:20.112Z,56.88
2023-05-24T01:39:52.847Z,56.80
2023-05-24T01:40:25.889Z,57.20
2023-05-24T01:41:05.657Z,56.83
2023-05-24T01:41:44.249Z,56.60
2023-05-24T01:42:27.083Z,57.00
2023-05-24T01:43:05.249Z,57.25
2023-05-24T01:43:41.482Z,56.75
2023-05-24T01:44:19.816Z,56.75
2023-05-24T01:44:59.866Z,56.85
2023-05-24T01:45:36.796Z,57.30
2023-05-24T01:46:17.808Z,56.72
2023-05-24T01:46:56.735Z,56.92
2023-05-24T01:47:43.394Z,56.65
2023-05-24T01:48:22.354Z,57.20
2023-05-24T01:49:02.253Z,57.90
2023-05-24T01:49:38.430Z,56.85
2023-05-24T01:50:17.599Z,56.58
2023-05-24T01:50:56.196Z,57.70
2023-05-24T01:51:38.768Z,56.60
2023-05-24T01:52:16.233Z,56.80
2023-05-24T01:52:51.494Z,57.47
2023-05-24T01:53:26.313Z,57.30
2023-05-24T01:54:02.989Z,56.67
2023-05-24T01:54:39.414Z,58.03
2023-05-24T01:55:15.113Z,57.35
2023-05-24T01:55:50.436Z,56.58
2023-05-24T01:56:22.854Z,56.25
2023-05-24T01:56:57.360Z,56.78
2023-05-24T01:57:33.372Z,57.15
2023-05-24T01:58:07.238Z,56.45
2023-05-24T01:58:40.916Z,57.85
2023-05-24T01:59:14.613Z,56.65
2023-05-24T01:59:47.382Z,57.25
2023-05-24T02:00:20.558Z,57.10
2023-05-24T02:00:54.154Z,56.60
2023-05-24T02:01:26.978Z,56.75
2023-05-24T02:01:59.569Z,57.17
2023-05-24T02:02:32.761Z,57.30
2023-05-24T02:03:05.734Z,56.75
2023-05-24T02:03:38.256Z,57.50
2023-05-24T02:04:11.938Z,57.30
2023-05-24T02:04:44.357Z,56.20
2023-05-24T02:05:16.511Z,56.03
2023-05-24T02:05:49.771Z,57.00
2023-05-24T02:06:21.735Z,57.00
2023-05-24T02:06:53.772Z,56.80
2023-05-24T02:07:26.828Z,57.60
2023-05-24T02:07:59.871Z,57.45
2023-05-24T02:08:31.831Z,57.07
2023-05-24T02:09:04.009Z,57.17
2023-05-24T02:09:36.067Z,57.03
2023-05-24T02:10:09.829Z,56.63
2023-05-24T02:10:42.045Z,56.97
2023-05-24T02:11:14.146Z,56.50
2023-05-24T02:11:47.187Z,57.85
2023-05-24T02:12:19.186Z,56.55
2023-05-24T02:12:52.607Z,57.58
2023-05-24T02:13:25.718Z,56.17
2023-05-24T02:13:57.676Z,57.25
2023-05-24T02:14:29.681Z,57.38
2023-05-24T02:15:01.666Z,56.80
2023-05-24T02:15:35.368Z,56.30
2023-05-24T02:16:08.214Z,56.58
2023-05-24T02:16:42.676Z,56.63
2023-05-24T02:17:17.984Z,57.63
2023-05-24T02:17:49.974Z,57.30
2023-05-24T02:18:22.683Z,56.55
2023-05-24T02:18:55.662Z,56.95
2023-05-24T02:19:27.644Z,57.05
2023-05-24T02:20:00.029Z,56.58
2023-05-24T02:20:37.156Z,56.13
2023-05-24T02:21:09.381Z,57.30
2023-05-24T02:21:42.664Z,56.58
2023-05-24T02:22:17.322Z,57.20
2023-05-24T02:22:49.287Z,56.15
2023-05-24T02:23:21.231Z,56.42
2023-05-24T02:23:54.236Z,56.28
2023-05-24T02:24:26.801Z,56.10
2023-05-24T02:24:58.830Z,56.17
2023-05-24T02:25:32.671Z,56.42
2023-05-24T02:26:04.769Z,56.35
2023-05-24T02:26:37.026Z,56.35
2023-05-24T02:27:09.999Z,57.05
2023-05-24T02:27:42.527Z,56.03
2023-05-24T02:28:16.066Z,56.28
2023-05-24T02:28:49.413Z,57.33
2023-05-24T02:29:21.815Z,56.92
2023-05-24T02:29:53.751Z,56.70
2023-05-24T02:30:27.180Z,56.15
2023-05-24T02:30:59.336Z,57.22
2023-05-24T02:31:31.634Z,57.15
2023-05-24T02:32:03.928Z,56.92
2023-05-24T02:32:37.134Z,56.58
2023-05-24T02:33:09.244Z,56.55
2023-05-24T02:33:41.316Z,57.17
2023-05-24T02:34:14.245Z,57.00
2023-05-24T02:34:46.413Z,56.90
2023-05-24T02:35:18.360Z,56.70
2023-05-24T02:35:51.859Z,56.95
2023-05-24T02:36:24.247Z,56.05
2023-05-24T02:36:56.659Z,56.15
2023-05-24T02:37:29.657Z,56.20
2023-05-24T02:38:03.218Z,57.17
2023-05-24T02:38:35.211Z,56.22
2023-05-24T02:39:08.343Z,56.35
2023-05-24T02:39:41.432Z,56.75
2023-05-24T02:40:13.769Z,56.33
2023-05-24T02:40:49.929Z,56.35
2023-05-24T02:41:22.158Z,57.17
2023-05-24T02:41:54.211Z,56.50
2023-05-24T02:42:26.155Z,57.80
2023-05-24T02:42:59.091Z,57.20
2023-05-24T02:43:32.609Z,56.63
2023-05-24T02:44:04.810Z,57.30
2023-05-24T02:44:36.838Z,57.20
2023-05-24T02:45:10.422Z,57.90
2023-05-24T02:45:42.470Z,56.70
2023-05-24T02:46:14.780Z,57.05
2023-05-24T02:46:47.846Z,56.72
2023-05-24T02:47:20.024Z,56.53
2023-05-24T02:47:52.119Z,56.60
2023-05-24T02:48:25.075Z,56.55
2023-05-24T02:48:57.287Z,57.22
2023-05-24T02:49:29.399Z,57.65
2023-05-24T02:50:01.392Z,57.00
2023-05-24T02:50:34.340Z,57.20
2023-05-24T02:51:06.478Z,56.90
2023-05-24T02:51:38.427Z,56.60
2023-05-24T02:52:11.626Z,57.50
2023-05-24T02:52:43.629Z,57.28
2023-05-24T02:53:15.934Z,56.65
2023-05-24T02:53:48.888Z,57.03
2023-05-24T02:54:20.833Z,56.55
2023-05-24T02:54:53.007Z,57.88
2023-05-24T02:55:29.188Z,57.35
2023-05-24T02:56:01.172Z,56.67
2023-05-24T02:56:37.537Z,56.53
2023-05-24T02:57:10.482Z,57.95
2023-05-24T02:57:44.979Z,57.38
2023-05-24T02:58:17.896Z,57.15
2023-05-24T02:58:55.662Z,57.00
2023-05-24T02:59:27.804Z,56.40
2023-05-24T03:00:00.068Z,57.35
2023-05-24T03:00:33.469Z,56.45
2023-05-24T03:01:05.651Z,57.15
2023-05-24T03:01:37.717Z,57.65
2023-05-24T03:02:13.756Z,57.20
2023-05-24T03:02:47.851Z,56.83
2023-05-24T03:03:20.280Z,57.47
2023-05-24T03:03:53.578Z,56.78
2023-05-24T03:04:25.679Z,57.92
2023-05-24T03:04:57.702Z,56.92
2023-05-24T03:05:31.104Z,58.75
2023-05-24T03:06:03.627Z,57.50
2023-05-24T03:06:36.132Z,57.28
2023-05-24T03:07:09.111Z,56.70
2023-05-24T03:07:41.110Z,57.42
2023-05-24T03:08:13.230Z,56.83
2023-05-24T03:08:46.289Z,57.53
2023-05-24T03:09:19.033Z,56.40
2023-05-24T03:09:51.088Z,57.78
2023-05-24T03:10:24.063Z,57.50
2023-05-24T03:10:56.021Z,57.03
2023-05-24T03:11:27.961Z,57.13
2023-05-24T03:12:00.903Z,56.92
2023-05-24T03:12:32.981Z,57.30
2023-05-24T03:13:04.984Z,56.53
2023-05-24T03:13:38.236Z,56.65
2023-05-24T03:14:11.572Z,56.75
2023-05-24T03:14:46.312Z,56.80
2023-05-24T03:15:19.501Z,56.53
2023-05-24T03:15:51.892Z,56.78
2023-05-24T03:16:24.038Z,57.50
2023-05-24T03:16:57.445Z,56.50
2023-05-24T03:17:29.520Z,56.60
2023-05-24T03:18:01.617Z,56.28
2023-05-24T03:18:34.617Z,56.70
2023-05-24T03:19:09.778Z,57.63
2023-05-24T03:19:46.158Z,56.92
2023-05-24T03:20:24.896Z,56.63
2023-05-24T03:20:57.677Z,56.60
2023-05-24T03:21:30.365Z,56.87
2023-05-24T03:22:06.173Z,57.67
2023-05-24T03:22:38.246Z,57.33
2023-05-24T03:23:10.225Z,56.65
2023-05-24T03:23:42.194Z,57.33
2023-05-24T03:24:16.033Z,57.10
2023-05-24T03:24:48.848Z,57.13
2023-05-24T03:25:21.482Z,56.65
2023-05-24T03:25:55.026Z,57.63
2023-05-24T03:26:27.094Z,56.78
2023-05-24T03:26:59.221Z,57.78
2023-05-24T03:27:33.324Z,56.72
2023-05-24T03:28:05.502Z,56.67
2023-05-24T03:28:37.913Z,56.83
2023-05-24T03:29:15.580Z,56.90
2023-05-24T03:29:48.237Z,56.65
2023-05-24T03:30:21.618Z,58.03
2023-05-24T03:31:07.102Z,56.80
2023-05-24T03:31:39.719Z,56.45
2023-05-24T03:32:12.047Z,57.08
2023-05-24T03:32:45.445Z,56.90
2023-05-24T03:33:17.643Z,56.88
2023-05-24T03:33:49.876Z,56.97
2023-05-24T03:34:24.215Z,57.00
2023-05-24T03:34:59.588Z,56.45
2023-05-24T03:35:32.609Z,56.83
2023-05-24T03:36:06.385Z,57.17
2023-05-24T03:36:39.432Z,56.40
2023-05-24T03:37:11.578Z,57.58
2023-05-24T03:37:44.918Z,56.42
2023-05-24T03:38:17.949Z,56.88
2023-05-24T03:38:52.366Z,56.47
2023-05-24T03:39:25.609Z,57.13
2023-05-24T03:40:10.608Z,57.15
2023-05-24T03:40:54.309Z,57.85
2023-05-24T03:41:27.764Z,56.97
2023-05-24T03:42:18.301Z,57.38
2023-05-24T03:42:50.432Z,56.63
2023-05-24T03:43:43.826Z,57.35
2023-05-24T03:44:23.245Z,57.65
2023-05-24T03:44:55.323Z,57.30
2023-05-24T03:45:38.566Z,57.35
2023-05-24T03:46:24.859Z,56.97
2023-05-24T03:46:57.004Z,57.58
2023-05-24T03:47:29.640Z,58.15
2023-05-24T03:48:02.620Z,57.22
2023-05-24T03:48:34.873Z,56.88
2023-05-24T03:49:07.751Z,56.83
2023-05-24T03:49:41.448Z,57.00
2023-05-24T03:50:14.826Z,56.88
2023-05-24T03:50:47.327Z,56.90
2023-05-24T03:51:19.642Z,57.20
2023-05-24T03:51:54.434Z,57.28
2023-05-24T03:52:26.431Z,57.47
2023-05-24T03:52:58.489Z,57.05
2023-05-24T03:53:32.441Z,56.92
2023-05-24T03:54:05.754Z,57.28
2023-05-24T03:54:37.804Z,57.42
2023-05-24T03:55:11.724Z,56.47
2023-05-24T03:55:43.739Z,56.55
2023-05-24T03:56:16.978Z,57.38
2023-05-24T03:56:49.889Z,56.75
2023-05-24T03:57:21.868Z,56.75
2023-05-24T03:57:53.844Z,57.00
2023-05-24T03:58:27.330Z,56.90
2023-05-24T03:59:03.798Z,56.95
2023-05-24T03:59:38.764Z,56.75
2023-05-24T04:00:14.356Z,56.85
2023-05-24T04:00:46.324Z,57.22
2023-05-24T04:01:32.496Z,57.70
2023-05-24T04:02:06.829Z,56.53
2023-05-24T04:02:39.016Z,56.42
2023-05-24T04:03:12.227Z,56.90
2023-05-24T04:03:46.284Z,56.33
2023-05-24T04:04:18.419Z,56.72
2023-05-24T04:04:50.466Z,56.60
2023-05-24T04:05:26.949Z,56.50
2023-05-24T04:05:59.203Z,56.65
2023-05-24T04:06:31.255Z,56.42
2023-05-24T04:07:05.308Z,56.65
2023-05-24T04:07:37.416Z,56.83
2023-05-24T04:08:09.385Z,56.30
2023-05-24T04:08:44.038Z,56.60
2023-05-24T04:09:16.254Z,56.58
2023-05-24T04:09:48.250Z,56.38
2023-05-24T04:10:21.371Z,56.15
2023-05-24T04:10:54.010Z,56.70
2023-05-24T04:11:28.453Z,57.05
2023-05-24T04:12:02.229Z,56.97
2023-05-24T04:12:34.686Z,56.38
2023-05-24T04:13:08.763Z,57.00
2023-05-24T04:13:42.883Z,57.75
2023-05-24T04:14:14.958Z,57.08
2023-05-24T04:14:48.349Z,55.95
2023-05-24T04:15:21.362Z,56.42
2023-05-24T04:15:53.642Z,57.45
2023-05-24T04:16:27.458Z,57.25
2023-05-24T04:16:59.709Z,57.03
2023-05-24T04:17:35.128Z,56.85
2023-05-24T04:18:08.637Z,57.10
2023-05-24T04:18:41.020Z,57.15
2023-05-24T04:19:13.176Z,57.08
2023-05-24T04:19:46.799Z,56.55
2023-05-24T04:20:19.060Z,56.78
2023-05-24T04:20:51.496Z,56.80
2023-05-24T04:21:26.187Z,57.15
2023-05-24T04:21:59.495Z,56.40
2023-05-24T04:22:31.513Z,56.80
2023-05-24T04:23:04.784Z,56.80
2023-05-24T04:23:36.714Z,56.80
2023-05-24T04:24:09.454Z,56.95
2023-05-24T04:24:41.686Z,57.30
2023-05-24T04:25:15.496Z,57.03
2023-05-24T04:25:47.574Z,58.05
2023-05-24T04:26:21.286Z,56.72
2023-05-24T04:26:54.785Z,56.58
2023-05-24T04:27:27.036Z,56.72
2023-05-24T04:28:00.292Z,56.75
2023-05-24T04:28:38.060Z,56.85
2023-05-24T04:29:10.207Z,56.33
2023-05-24T04:29:42.337Z,57.10
2023-05-24T04:30:17.108Z,57.05
2023-05-24T04:30:49.148Z,56.42
2023-05-24T04:31:21.389Z,56.42
2023-05-24T04:31:54.677Z,56.75
2023-05-24T04:32:26.747Z,56.72
2023-05-24T04:32:59.352Z,57.08
2023-05-24T04:33:34.300Z,56.78
2023-05-24T04:34:07.776Z,56.78
2023-05-24T04:34:42.906Z,56.58
2023-05-24T04:35:16.806Z,57.17
2023-05-24T04:35:49.233Z,56.95
2023-05-24T04:36:25.153Z,58.28
2023-05-24T04:36:57.876Z,56.58
2023-05-24T04:37:31.729Z,56.73
2023-05-24T04:38:04.673Z,56.63
2023-05-24T04:38:38.713Z,56.20
2023-05-24T04:39:11.504Z,56.40
2023-05-24T04:39:45.416Z,56.60
2023-05-24T04:40:17.846Z,56.83
2023-05-24T04:40:50.102Z,56.85
2023-05-24T04:41:24.409Z,56.47
2023-05-24T04:41:58.044Z,56.90
2023-05-24T04:42:33.223Z,56.63
2023-05-24T04:43:08.939Z,57.08
2023-05-24T04:43:40.933Z,57.03
2023-05-24T04:44:12.909Z,56.83
2023-05-24T04:44:47.748Z,56.38
2023-05-24T04:45:21.211Z,56.72
2023-05-24T04:45:54.687Z,56.80
2023-05-24T04:46:28.466Z,56.65
2023-05-24T04:47:02.797Z,57.10
2023-05-24T04:47:34.852Z,57.70
2023-05-24T04:48:08.184Z,57.47
2023-05-24T04:48:40.718Z,56.80
2023-05-24T04:49:12.908Z,56.78
2023-05-24T04:49:46.250Z,57.38
2023-05-24T04:50:18.385Z,57.00
2023-05-24T04:50:51.729Z,57.45
2023-05-24T04:51:25.239Z,56.92
2023-05-24T04:51:58.826Z,57.28
2023-05-24T04:52:30.823Z,57.67
2023-05-24T04:53:04.040Z,57.28
2023-05-24T04:53:36.467Z,57.50
2023-05-24T04:54:09.243Z,58.10
2023-05-24T04:54:42.669Z,57.58
2023-05-24T04:55:14.610Z,57.50
2023-05-24T04:55:47.867Z,58.72
2023-05-24T04:56:20.982Z,57.63
2023-05-24T04:56:52.965Z,57.28
2023-05-24T04:57:24.991Z,57.28
2023-05-24T04:57:58.227Z,57.45
2023-05-24T04:58:30.758Z,57.75
2023-05-24T04:59:03.009Z,58.00
2023-05-24T04:59:36.259Z,57.90
2023-05-24T05:00:10.284Z,58.10
2023-05-24T05:00:44.728Z,58.17
2023-05-24T05:01:17.729Z,57.67
2023-05-24T05:01:49.857Z,57.80
2023-05-24T05:02:22.617Z,58.10
2023-05-24T05:02:56.232Z,58.15
2023-05-24T05:03:28.698Z,56.88
2023-05-24T05:04:00.972Z,57.65
2023-05-24T05:04:33.960Z,58.80
2023-05-24T05:05:06.624Z,57.17
2023-05-24T05:05:38.699Z,58.17
2023-05-24T05:06:11.649Z,58.10
2023-05-24T05:06:44.759Z,57.70
2023-05-24T05:07:17.085Z,58.22
2023-05-24T05:07:50.032Z,57.15
2023-05-24T05:08:22.090Z,57.35
2023-05-24T05:08:54.565Z,57.83
2023-05-24T05:09:28.218Z,57.30
2023-05-24T05:10:00.191Z,57.35
2023-05-24T05:10:32.750Z,57.53
2023-05-24T05:11:06.026Z,58.53
2023-05-24T05:11:38.097Z,58.72
2023-05-24T05:12:10.192Z,58.33
2023-05-24T05:12:43.195Z,58.20
2023-05-24T05:13:15.690Z,58.13
2023-05-24T05:13:47.669Z,57.58
2023-05-24T05:14:20.769Z,57.75
2023-05-24T05:14:52.714Z,57.90
2023-05-24T05:15:25.879Z,57.72
2023-05-24T05:15:59.261Z,58.30
2023-05-24T05:16:32.058Z,58.50
2023-05-24T05:17:05.313Z,58.65
2023-05-24T05:17:37.627Z,57.97
2023-05-24T05:18:09.610Z,58.25
2023-05-24T05:18:42.593Z,58.30
2023-05-24T05:19:15.123Z,58.42
2023-05-24T05:19:47.366Z,58.75
2023-05-24T05:20:20.603Z,58.67
2023-05-24T05:20:52.641Z,58.95
2023-05-24T05:21:25.573Z,59.17
2023-05-24T05:21:57.464Z,58.38
2023-05-24T05:22:31.373Z,58.63
2023-05-24T05:23:03.610Z,58.63
2023-05-24T05:23:36.357Z,58.38
2023-05-24T05:24:09.601Z,58.15
2023-05-24T05:24:41.539Z,58.30
2023-05-24T05:25:13.657Z,58.20
2023-05-24T05:25:46.656Z,58.13
2023-05-24T05:26:18.752Z,58.50
2023-05-24T05:26:50.745Z,58.53
2023-05-24T05:27:23.727Z,58.47
2023-05-24T05:27:55.712Z,58.25
2023-05-24T05:28:28.704Z,58.50
2023-05-24T05:29:00.696Z,59.00
2023-05-24T05:29:32.727Z,58.40
2023-05-24T05:30:07.112Z,58.58
2023-05-24T05:30:39.514Z,59.40
2023-05-24T05:31:13.845Z,58.88
2023-05-24T05:31:47.844Z,59.08
2023-05-24T05:32:19.850Z,58.78
2023-05-24T05:32:53.018Z,58.95
2023-05-24T05:33:25.308Z,59.15
2023-05-24T05:33:57.355Z,58.40
2023-05-24T05:34:30.347Z,59.00
2023-05-24T05:35:02.353Z,58.95
2023-05-24T05:35:34.318Z,58.17
2023-05-24T05:36:07.548Z,58.75
2023-05-24T05:36:40.913Z,58.60
2023-05-24T05:37:12.987Z,58.83
2023-05-24T05:37:45.931Z,58.05
2023-05-24T05:38:17.889Z,58.50
2023-05-24T05:38:49.848Z,58.70
2023-05-24T05:39:22.854Z,58.58
2023-05-24T05:39:54.958Z,58.90
2023-05-24T05:40:27.106Z,58.70
2023-05-24T05:41:00.029Z,58.65
2023-05-24T05:41:32.230Z,58.40
2023-05-24T05:42:04.622Z,58.35
2023-05-24T05:42:37.572Z,58.35
2023-05-24T05:43:09.635Z,58.97
2023-05-24T05:43:41.610Z,58.38
2023-05-24T05:44:14.753Z,58.47
2023-05-24T05:44:47.295Z,59.28
2023-05-24T05:45:19.463Z,58.72
2023-05-24T05:45:52.472Z,58.72
2023-05-24T05:46:25.904Z,58.47
2023-05-24T05:46:58.806Z,60.05
2023-05-24T05:47:30.898Z,57.85
2023-05-24T05:48:02.876Z,58.47
2023-05-24T05:48:35.802Z,58.83
2023-05-24T05:49:07.732Z,59.10
2023-05-24T05:49:39.665Z,59.05
2023-05-24T05:50:12.886Z,59.33
2023-05-24T05:50:44.862Z,59.30
2023-05-24T05:51:16.809Z,58.13
2023-05-24T05:51:50.093Z,59.00
2023-05-24T05:52:22.050Z,58.70
2023-05-24T05:52:55.017Z,59.58
2023-05-24T05:53:27.083Z,59.13
2023-05-24T05:54:00.149Z,59.65
2023-05-24T05:54:32.150Z,58.45
2023-05-24T05:55:05.563Z,59.63
2023-05-24T05:55:37.541Z,58.40
2023-05-24T05:56:09.584Z,58.78
2023-05-24T05:56:45.736Z,58.83
2023-05-24T05:57:19.691Z,58.50
2023-05-24T05:57:52.614Z,59.05
2023-05-24T05:58:24.672Z,59.03
2023-05-24T05:58:59.154Z,59.28
2023-05-24T05:59:35.892Z,60.00
2023-05-24T06:00:09.050Z,58.75
2023-05-24T06:00:45.045Z,58.78
2023-05-24T06:01:17.034Z,59.70
2023-05-24T06:01:51.438Z,58.78
2023-05-24T06:02:23.440Z,58.45
2023-05-24T06:02:56.695Z,58.63
2023-05-24T06:03:29.018Z,59.45
2023-05-24T06:04:01.228Z,59.15
2023-05-24T06:04:34.292Z,59.65
2023-05-24T06:05:06.924Z,58.75
2023-05-24T06:05:39.021Z,59.10
2023-05-24T06:06:12.494Z,59.25
2023-05-24T06:06:45.591Z,58.92
2023-05-24T06:07:17.535Z,58.50
2023-05-24T06:07:50.456Z,58.92
2023-05-24T06:08:22.423Z,59.40
2023-05-24T06:08:55.546Z,59.53
2023-05-24T06:09:27.706Z,59.00
2023-05-24T06:10:00.640Z,58.42
2023-05-24T06:10:32.617Z,58.88
2023-05-24T06:11:04.629Z,60.10
2023-05-24T06:11:37.564Z,59.38
2023-05-24T06:12:09.481Z,59.03
2023-05-24T06:12:42.393Z,59.47
2023-05-24T06:13:14.417Z,59.75
2023-05-24T06:13:46.358Z,58.65
2023-05-24T06:14:20.401Z,59.10
2023-05-24T06:14:52.478Z,58.70
2023-05-24T06:15:24.461Z,58.97
2023-05-24T06:15:58.975Z,58.92
2023-05-24T06:16:32.630Z,58.88
2023-05-24T06:17:07.515Z,59.10
2023-05-24T06:17:39.689Z,59.13
2023-05-24T06:18:13.707Z,59.37
2023-05-24T06:18:57.211Z,58.85
2023-05-24T06:19:34.944Z,59.53
2023-05-24T06:20:11.002Z,59.30
2023-05-24T06:20:44.941Z,59.65
2023-05-24T06:21:17.778Z,59.50
2023-05-24T06:21:50.868Z,59.53
2023-05-24T06:22:22.989Z,60.30
2023-05-24T06:22:57.239Z,59.33
2023-05-24T06:23:30.017Z,60.13
2023-05-24T06:24:02.646Z,59.50
2023-05-24T06:24:35.689Z,59.30
2023-05-24T06:25:08.608Z,59.35
2023-05-24T06:25:43.824Z,59.50
2023-05-24T06:26:16.787Z,59.05
2023-05-24T06:26:51.288Z,59.50
2023-05-24T06:27:23.372Z,59.25
2023-05-24T06:27:56.306Z,58.85
2023-05-24T06:28:28.254Z,58.67
2023-05-24T06:29:00.224Z,59.60
2023-05-24T06:29:33.220Z,59.25
2023-05-24T06:30:06.969Z,59.28
2023-05-24T06:30:40.138Z,59.30
2023-05-24T06:31:12.231Z,59.50
2023-05-24T06:31:44.309Z,59.35
2023-05-24T06:32:18.638Z,58.85
2023-05-24T06:32:50.771Z,59.20
2023-05-24T06:33:22.741Z,59.05
2023-05-24T06:34:03.764Z,59.75
2023-05-24T06:34:36.550Z,59.30
2023-05-24T06:35:10.289Z,59.25
2023-05-24T06:35:42.274Z,59.95
2023-05-24T06:36:15.227Z,59.30
2023-05-24T06:36:48.701Z,59.05
2023-05-24T06:37:25.653Z,58.92
2023-05-24T06:37:57.922Z,58.97
2023-05-24T06:38:32.943Z,59.75
2023-05-24T06:39:05.382Z,59.50
2023-05-24T06:39:37.600Z,59.13
2023-05-24T06:40:11.122Z,58.63
2023-05-24T06:40:43.316Z,59.30
2023-05-24T06:41:15.988Z,59.22
2023-05-24T06:41:51.234Z,59.10
2023-05-24T06:42:29.243Z,59.53
2023-05-24T06:43:02.200Z,59.17
2023-05-24T06:43:34.695Z,58.70
2023-05-24T06:44:06.769Z,59.38
2023-05-24T06:44:39.698Z,59.08
2023-05-24T06:45:12.075Z,59.75
2023-05-24T06:45:44.047Z,59.70
2023-05-24T06:46:17.143Z,60.10
2023-05-24T06:46:49.120Z,59.80
2023-05-24T06:47:24.051Z,59.15
2023-05-24T06:47:56.226Z,59.60
2023-05-24T06:48:28.346Z,59.83
2023-05-24T06:49:01.541Z,59.97
2023-05-24T06:49:33.608Z,60.05
2023-05-24T06:50:08.441Z,59.67
2023-05-24T06:50:42.649Z,60.35
2023-05-24T06:51:14.933Z,60.20
2023-05-24T06:51:50.676Z,60.05
2023-05-24T06:52:22.810Z,59.83
2023-05-24T06:52:55.828Z,59.75
2023-05-24T06:53:27.831Z,59.95
2023-05-24T06:54:00.204Z,59.80
2023-05-24T06:54:33.177Z,59.60
2023-05-24T06:55:05.941Z,59.92
2023-05-24T06:55:37.945Z,60.28
2023-05-24T06:56:12.032Z,60.20
2023-05-24T06:56:44.031Z,59.40
2023-05-24T06:57:16.111Z,60.03
2023-05-24T06:57:49.010Z,59.80
2023-05-24T06:58:21.075Z,60.20
2023-05-24T06:58:53.050Z,60.60
2023-05-24T06:59:25.987Z,61.13
2023-05-24T06:59:57.960Z,60.00
2023-05-24T07:00:30.941Z,59.83
2023-05-24T07:01:05.001Z,60.25
2023-05-24T07:01:39.799Z,60.30
2023-05-24T07:02:12.803Z,60.10
2023-05-24T07:02:46.181Z,59.78
2023-05-24T07:03:19.174Z,60.60
2023-05-24T07:03:51.684Z,60.53
2023-05-24T07:04:24.396Z,60.22
2023-05-24T07:04:58.328Z,60.83
2023-05-24T07:05:30.359Z,60.15
2023-05-24T07:06:03.683Z,60.22
2023-05-24T07:06:35.763Z,60.53
2023-05-24T07:07:09.089Z,59.80
2023-05-24T07:07:42.517Z,60.55
2023-05-24T07:08:15.462Z,60.63
2023-05-24T07:08:47.408Z,60.57
2023-05-24T07:09:19.762Z,60.05
2023-05-24T07:09:53.223Z,60.08
2023-05-24T07:10:25.262Z,60.75
2023-05-24T07:10:57.222Z,61.72
2023-05-24T07:11:30.188Z,60.45
2023-05-24T07:12:02.686Z,61.00
2023-05-24T07:12:34.757Z,60.72
2023-05-24T07:13:07.654Z,61.22
2023-05-24T07:13:39.649Z,61.22
2023-05-24T07:14:11.693Z,60.38
2023-05-24T07:14:44.686Z,60.75
2023-05-24T07:15:16.755Z,61.00